createdAt,value
2019-02-16T00:01:24.412Z,10.30
2019-02-16T00:03:55.159Z,9.23
2019-02-16T00:06:24.872Z,10.03
2019-02-16T00:08:54.646Z,9.60
2019-02-16T00:11:24.365Z,10.30
2019-02-16T00:13:55.093Z,8.70
2019-02-16T00:16:24.528Z,8.47
2019-02-16T00:18:56.022Z,8.77
2019-02-16T00:21:26.334Z,10.23
2019-02-16T00:23:56.381Z,10.77
2019-02-16T00:26:27.182Z,7.60
2019-02-16T00:28:57.501Z,8.23
2019-02-16T00:31:26.786Z,8.63
2019-02-16T00:33:56.591Z,9.27
2019-02-16T00:36:25.763Z,9.40
2019-02-16T00:38:54.957Z,8.43
2019-02-16T00:41:24.233Z,6.87
2019-02-16T00:43:53.694Z,7.97
2019-02-16T00:46:23.434Z,7.20
2019-02-16T00:48:53.127Z,7.10
2019-02-16T00:51:23.710Z,8.93
2019-02-16T00:53:53.459Z,7.80
2019-02-16T00:56:24.464Z,7.67
2019-02-16T00:58:54.484Z,8.53
2019-02-16T01:01:23.686Z,6.93
2019-02-16T01:03:52.848Z,9.10
2019-02-16T01:06:22.313Z,10.70
2019-02-16T01:08:51.481Z,11.50
2019-02-16T01:11:21.231Z,9.80
2019-02-16T01:13:52.712Z,9.97
2019-02-16T01:16:22.183Z,10.17
2019-02-16T01:18:51.913Z,9.60
2019-02-16T01:21:24.137Z,9.97
2019-02-16T01:23:53.878Z,7.77
2019-02-16T01:26:23.572Z,10.17
2019-02-16T01:28:53.725Z,9.47
2019-02-16T01:31:25.365Z,8.20
2019-02-16T01:33:54.550Z,8.53
2019-02-16T01:36:26.393Z,7.67
2019-02-16T01:38:56.190Z,11.00
2019-02-16T01:41:28.628Z,10.13
2019-02-16T01:44:00.042Z,10.67
2019-02-16T01:46:30.154Z,9.80
2019-02-16T01:48:59.603Z,9.40
2019-02-16T01:51:32.626Z,9.10
2019-02-16T01:54:03.389Z,12.00
2019-02-16T01:56:34.393Z,10.53
2019-02-16T01:59:03.549Z,8.23
2019-02-16T02:01:33.615Z,7.93
2019-02-16T02:04:03.602Z,12.07
2019-02-16T02:06:33.940Z,9.30
2019-02-16T02:09:05.275Z,7.53
2019-02-16T02:11:34.847Z,10.83
2019-02-16T02:14:07.130Z,11.03
2019-02-16T02:16:38.489Z,8.87
2019-02-16T02:19:08.104Z,7.93
2019-02-16T02:21:41.138Z,8.10
2019-02-16T02:24:09.637Z,7.70
2019-02-16T02:26:39.885Z,9.47
2019-02-16T02:29:09.705Z,9.03
2019-02-16T02:31:40.496Z,11.63
2019-02-16T02:34:12.539Z,7.90
2019-02-16T02:36:49.896Z,10.83
2019-02-16T02:39:19.721Z,10.60
2019-02-16T02:41:48.897Z,9.60
2019-02-16T02:44:22.355Z,14.83
2019-02-16T02:46:52.905Z,13.20
2019-02-16T02:49:22.467Z,15.03
2019-02-16T02:51:57.145Z,13.27
2019-02-16T02:54:26.890Z,12.93
2019-02-16T02:56:57.147Z,10.97
2019-02-16T02:59:30.046Z,12.57
2019-02-16T03:02:00.003Z,12.77
2019-02-16T03:04:29.553Z,9.97
2019-02-16T03:07:01.996Z,9.50
2019-02-16T03:09:35.330Z,12.50
2019-02-16T03:12:05.718Z,10.60
2019-02-16T03:14:38.262Z,8.17
2019-02-16T03:17:08.760Z,9.07
2019-02-16T03:19:39.240Z,8.90
2019-02-16T03:22:09.488Z,9.47
2019-02-16T03:24:38.841Z,9.30
2019-02-16T03:27:33.822Z,8.93
2019-02-16T03:30:26.878Z,9.97
2019-02-16T03:33:42.946Z,11.80
2019-02-16T03:36:57.714Z,9.97
2019-02-16T03:39:33.130Z,12.60
2019-02-16T03:42:02.892Z,13.03
2019-02-16T03:44:34.297Z,10.50
2019-02-16T03:47:03.845Z,9.07
2019-02-16T03:49:34.171Z,10.77
2019-02-16T03:52:13.284Z,11.77
2019-02-16T03:54:36.875Z,13.67
2019-02-16T03:57:06.351Z,12.13
2019-02-16T03:59:35.807Z,12.23
2019-02-16T04:02:08.758Z,11.00
2019-02-16T04:04:40.704Z,10.57
2019-02-16T04:07:10.151Z,12.83
2019-02-16T04:09:39.893Z,10.67
2019-02-16T04:12:11.831Z,12.07
2019-02-16T04:14:41.792Z,9.43
2019-02-16T04:17:16.697Z,10.77
2019-02-16T04:19:47.633Z,9.67
2019-02-16T04:22:24.539Z,11.93
2019-02-16T04:24:49.874Z,8.73
2019-02-16T04:27:20.318Z,13.60
2019-02-16T04:29:53.434Z,10.07
2019-02-16T04:32:23.799Z,11.50
2019-02-16T04:34:54.141Z,11.47
2019-02-16T04:37:27.032Z,12.87
2019-02-16T04:39:57.539Z,10.20
2019-02-16T04:42:30.866Z,10.30
2019-02-16T04:45:05.392Z,11.47
2019-02-16T04:47:35.369Z,10.97
2019-02-16T04:50:04.837Z,10.60
2019-02-16T04:52:35.258Z,10.33
2019-02-16T04:55:09.171Z,9.83
2019-02-16T04:57:38.373Z,11.87
2019-02-16T05:00:09.958Z,9.43
2019-02-16T05:02:39.679Z,9.63
2019-02-16T05:05:11.070Z,9.60
2019-02-16T05:07:40.539Z,10.17
2019-02-16T05:10:12.615Z,14.87
2019-02-16T05:12:42.823Z,12.00
2019-02-16T05:15:16.115Z,13.83
2019-02-16T05:17:47.165Z,10.93
2019-02-16T05:20:16.351Z,10.10
2019-02-16T05:22:47.782Z,9.27
2019-02-16T05:25:17.665Z,12.43
2019-02-16T05:27:48.459Z,13.33
2019-02-16T05:30:19.944Z,10.20
2019-02-16T05:32:52.960Z,11.97
2019-02-16T05:35:25.397Z,10.77
2019-02-16T05:37:58.259Z,12.83
2019-02-16T05:40:27.783Z,10.67
2019-02-16T05:42:58.416Z,12.60
2019-02-16T05:45:28.715Z,12.40
2019-02-16T05:47:58.192Z,13.90
2019-02-16T05:50:28.839Z,17.03
2019-02-16T05:53:00.328Z,15.20
2019-02-16T05:55:29.487Z,15.47
2019-02-16T05:57:58.990Z,15.77
2019-02-16T06:00:30.080Z,15.10
2019-02-16T06:03:00.613Z,13.23
2019-02-16T06:05:32.909Z,13.53
2019-02-16T06:08:04.214Z,15.13
2019-02-16T06:10:33.396Z,14.30
2019-02-16T06:13:03.173Z,14.07
2019-02-16T06:15:35.389Z,12.90
2019-02-16T06:18:08.088Z,13.87
2019-02-16T06:20:37.594Z,13.03
2019-02-16T06:23:07.053Z,15.33
2019-02-16T06:25:38.022Z,24.83
2019-02-16T06:28:11.461Z,17.53
2019-02-16T06:30:48.566Z,24.67
2019-02-16T06:33:17.792Z,19.47
2019-02-16T06:36:06.617Z,18.47
2019-02-16T06:38:36.088Z,15.03
2019-02-16T06:41:06.212Z,13.40
2019-02-16T06:43:37.452Z,15.77
2019-02-16T06:46:09.167Z,16.70
2019-02-16T06:48:39.111Z,17.50
2019-02-16T06:51:09.068Z,15.77
2019-02-16T06:53:42.832Z,16.30
2019-02-16T06:56:38.100Z,15.10
2019-02-16T06:59:08.767Z,18.60
2019-02-16T07:01:39.456Z,17.63
2019-02-16T07:04:09.977Z,17.67
2019-02-16T07:06:43.756Z,18.83
2019-02-16T07:09:16.442Z,22.33
2019-02-16T07:11:46.192Z,18.27
2019-02-16T07:14:16.245Z,17.77
2019-02-16T07:17:12.573Z,17.63
2019-02-16T07:19:50.744Z,19.53
2019-02-16T07:22:24.675Z,37.60
2019-02-16T07:24:56.977Z,55.57
2019-02-16T07:27:27.034Z,22.10
2019-02-16T07:29:58.471Z,19.13
2019-02-16T07:32:29.289Z,21.10
2019-02-16T07:35:02.602Z,17.03
2019-02-16T07:37:32.142Z,18.27
2019-02-16T07:40:03.004Z,18.07
2019-02-16T07:42:49.395Z,17.40
2019-02-16T07:45:39.010Z,17.83
2019-02-16T07:48:17.415Z,18.07
2019-02-16T07:50:56.961Z,17.17
2019-02-16T07:53:44.237Z,18.97
2019-02-16T07:56:30.181Z,19.63
2019-02-16T07:59:26.701Z,18.37
2019-02-16T08:02:18.043Z,16.80
2019-02-16T08:05:00.554Z,22.33
2019-02-16T08:07:55.749Z,15.27
2019-02-16T08:11:00.222Z,18.87
2019-02-16T08:13:39.270Z,14.27
2019-02-16T08:16:34.321Z,15.20
2019-02-16T08:19:30.365Z,13.40
2019-02-16T08:22:30.687Z,13.27
2019-02-16T08:25:32.610Z,11.43
2019-02-16T08:28:24.975Z,13.23
2019-02-16T08:31:34.972Z,13.00
2019-02-16T08:34:23.481Z,13.43
2019-02-16T08:37:17.862Z,12.73
2019-02-16T08:40:14.505Z,11.67
2019-02-16T08:43:24.345Z,19.07
2019-02-16T08:46:11.200Z,19.03
2019-02-16T08:48:46.566Z,20.40
2019-02-16T08:51:22.179Z,16.70
2019-02-16T08:54:19.121Z,15.70
2019-02-16T08:57:07.555Z,16.57
2019-02-16T08:59:47.368Z,15.57
2019-02-16T09:02:22.578Z,16.67
2019-02-16T09:04:59.299Z,13.50
2019-02-16T09:07:37.723Z,12.93
2019-02-16T09:10:24.569Z,13.73
2019-02-16T09:13:11.468Z,15.37
2019-02-16T09:16:05.298Z,16.80
2019-02-16T09:18:49.137Z,12.40
2019-02-16T09:21:29.656Z,12.00
2019-02-16T09:24:20.688Z,15.17
2019-02-16T09:27:01.548Z,16.77
2019-02-16T09:29:44.417Z,16.90
2019-02-16T09:32:48.100Z,14.00
2019-02-16T09:35:32.344Z,14.80
2019-02-16T09:38:12.193Z,15.10
2019-02-16T09:40:59.339Z,14.23
2019-02-16T09:43:39.927Z,16.87
2019-02-16T09:46:31.026Z,16.73
2019-02-16T09:49:23.325Z,15.80
2019-02-16T09:52:06.012Z,16.30
2019-02-16T09:54:54.258Z,16.67
2019-02-16T09:57:54.210Z,15.30
2019-02-16T10:00:41.641Z,15.07
2019-02-16T10:03:31.478Z,16.67
2019-02-16T10:06:26.073Z,16.70
2019-02-16T10:09:29.065Z,21.43
2019-02-16T10:12:12.187Z,15.67
2019-02-16T10:15:07.110Z,21.17
2019-02-16T10:18:01.956Z,16.97
2019-02-16T10:20:48.099Z,18.57
2019-02-16T10:23:39.168Z,17.00
2019-02-16T10:26:42.805Z,19.63
2019-02-16T10:29:27.674Z,16.23
2019-02-16T10:32:27.916Z,21.67
2019-02-16T10:35:16.009Z,19.87
2019-02-16T10:38:24.459Z,18.63
2019-02-16T10:41:20.412Z,16.33
2019-02-16T10:43:58.275Z,20.70
2019-02-16T10:46:45.484Z,16.30
2019-02-16T10:49:29.235Z,16.23
2019-02-16T10:52:20.340Z,17.40
2019-02-16T10:55:30.061Z,18.73
2019-02-16T10:58:12.016Z,18.73
2019-02-16T11:00:50.985Z,20.63
2019-02-16T11:03:42.581Z,18.47
2019-02-16T11:06:30.769Z,18.33
2019-02-16T11:09:18.913Z,17.27
2019-02-16T11:12:25.056Z,16.80
2019-02-16T11:15:12.828Z,18.53
2019-02-16T11:17:50.902Z,22.27
2019-02-16T11:20:37.508Z,19.20
2019-02-16T11:23:24.021Z,18.33
2019-02-16T11:26:02.356Z,18.97
2019-02-16T11:29:11.235Z,23.20
2019-02-16T11:32:11.179Z,55.80
2019-02-16T11:35:18.596Z,19.67
2019-02-16T11:38:27.226Z,20.43
2019-02-16T11:41:18.823Z,20.23
2019-02-16T11:44:08.393Z,22.83
2019-02-16T11:46:56.511Z,21.60
2019-02-16T11:49:54.638Z,20.90
2019-02-16T11:52:45.894Z,22.03
2019-02-16T11:55:52.132Z,22.57
2019-02-16T11:58:40.664Z,22.23
2019-02-16T12:01:28.486Z,22.63
2019-02-16T12:04:13.643Z,22.63
2019-02-16T12:07:06.196Z,21.47
2019-02-16T12:09:45.233Z,21.70
2019-02-16T12:12:42.621Z,21.83
2019-02-16T12:15:47.091Z,21.27
2019-02-16T12:18:43.520Z,22.03
2019-02-16T12:21:31.749Z,24.40
2019-02-16T12:24:19.633Z,24.37
2019-02-16T12:27:15.036Z,23.27
2019-02-16T12:30:04.126Z,24.40
2019-02-16T12:32:59.685Z,20.77
2019-02-16T12:35:46.576Z,23.90
2019-02-16T12:38:47.532Z,20.37
2019-02-16T12:41:43.063Z,26.30
2019-02-16T12:44:34.764Z,27.97
2019-02-16T12:47:39.594Z,23.70
2019-02-16T12:50:30.129Z,23.70
2019-02-16T12:53:36.349Z,23.50
2019-02-16T12:56:28.278Z,23.37
2019-02-16T12:59:33.355Z,25.13
2019-02-16T13:02:24.721Z,21.50
2019-02-16T13:05:09.120Z,22.90
2019-02-16T13:07:46.508Z,23.30
2019-02-16T13:10:47.243Z,25.10
2019-02-16T13:13:26.818Z,21.17
2019-02-16T13:16:13.674Z,20.43
2019-02-16T13:18:59.624Z,24.03
2019-02-16T13:21:47.807Z,23.63
2019-02-16T13:24:38.295Z,21.13
2019-02-16T13:27:25.333Z,23.67
2019-02-16T13:30:20.373Z,21.40
2019-02-16T13:33:18.569Z,22.27
2019-02-16T13:36:21.675Z,25.73
2019-02-16T13:39:01.934Z,23.33
2019-02-16T13:41:52.570Z,21.90
2019-02-16T13:44:28.924Z,24.60
2019-02-16T13:47:14.185Z,22.83
2019-02-16T13:50:00.604Z,21.73
2019-02-16T13:52:58.410Z,22.43
2019-02-16T13:55:43.834Z,22.83
2019-02-16T13:58:39.067Z,24.27
2019-02-16T14:01:26.728Z,21.93
2019-02-16T14:04:33.195Z,23.47
2019-02-16T14:07:14.870Z,21.67
2019-02-16T14:09:53.015Z,23.37
2019-02-16T14:12:45.110Z,24.23
2019-02-16T14:15:21.880Z,24.40
2019-02-16T14:17:53.196Z,22.67
2019-02-16T14:20:24.114Z,25.87
2019-02-16T14:22:55.632Z,23.40
2019-02-16T14:25:43.757Z,23.63
2019-02-16T14:28:27.798Z,22.33
2019-02-16T14:31:03.823Z,24.87
2019-02-16T14:33:35.584Z,23.33
2019-02-16T14:36:05.168Z,24.17
2019-02-16T14:39:00.298Z,22.73
2019-02-16T14:41:30.462Z,26.03
2019-02-16T14:44:04.561Z,26.40
2019-02-16T14:46:33.755Z,22.47
2019-02-16T14:49:02.958Z,24.10
2019-02-16T14:51:32.162Z,26.37
2019-02-16T14:54:03.012Z,26.23
2019-02-16T14:56:32.177Z,24.67
2019-02-16T14:59:02.197Z,21.27
2019-02-16T15:01:31.705Z,19.83
2019-02-16T15:04:08.225Z,23.27
2019-02-16T15:06:41.764Z,24.53
2019-02-16T15:09:13.975Z,31.00
2019-02-16T15:11:47.102Z,23.23
2019-02-16T15:14:17.371Z,23.20
2019-02-16T15:16:47.817Z,23.57
2019-02-16T15:19:17.918Z,25.43
2019-02-16T15:21:48.868Z,22.43
2019-02-16T15:24:18.401Z,24.00
2019-02-16T15:26:47.583Z,24.83
2019-02-16T15:29:22.177Z,24.70
2019-02-16T15:31:52.974Z,23.63
2019-02-16T15:34:25.544Z,24.23
2019-02-16T15:36:55.062Z,25.63
2019-02-16T15:39:25.048Z,28.10
2019-02-16T15:41:57.817Z,23.60
2019-02-16T15:44:27.681Z,24.13
2019-02-16T15:46:57.713Z,21.87
2019-02-16T15:49:30.126Z,26.80
2019-02-16T15:52:00.706Z,23.93
2019-02-16T15:54:36.443Z,22.30
2019-02-16T15:57:09.945Z,22.27
2019-02-16T15:59:39.807Z,25.60
2019-02-16T16:02:10.150Z,25.33
2019-02-16T16:04:41.211Z,25.77
2019-02-16T16:07:15.310Z,26.23
2019-02-16T16:10:02.533Z,41.43
2019-02-16T16:12:49.343Z,46.27
2019-02-16T16:15:44.661Z,32.23
2019-02-16T16:18:38.351Z,25.67
2019-02-16T16:21:21.980Z,26.70
2019-02-16T16:24:09.940Z,23.17
2019-02-16T16:27:05.334Z,25.37
2019-02-16T16:30:03.015Z,24.43
2019-02-16T16:32:55.676Z,23.80
2019-02-16T16:35:36.912Z,22.83
2019-02-16T16:38:23.661Z,24.43
2019-02-16T16:41:17.597Z,26.87
2019-02-16T16:44:08.111Z,24.93
2019-02-16T16:46:57.184Z,27.20
2019-02-16T16:49:39.147Z,27.30
2019-02-16T16:52:20.279Z,28.73
2019-02-16T16:55:12.068Z,28.23
2019-02-16T16:58:06.856Z,26.43
2019-02-16T17:00:47.499Z,34.77
2019-02-16T17:03:44.521Z,24.23
2019-02-16T17:06:21.096Z,28.07
2019-02-16T17:09:12.932Z,31.27
2019-02-16T17:12:01.615Z,23.20
2019-02-16T17:14:50.255Z,31.17
2019-02-16T17:17:47.937Z,27.77
2019-02-16T17:20:46.436Z,31.70
2019-02-16T17:23:33.026Z,24.93
2019-02-16T17:26:19.928Z,27.10
2019-02-16T17:29:26.327Z,28.37
2019-02-16T17:32:28.169Z,30.97
2019-02-16T17:35:32.034Z,29.53
2019-02-16T17:38:23.855Z,37.60
2019-02-16T17:41:05.611Z,35.33
2019-02-16T17:44:03.781Z,34.07
2019-02-16T17:46:51.392Z,30.57
2019-02-16T17:49:43.497Z,26.70
2019-02-16T17:52:30.407Z,26.33
2019-02-16T17:55:21.783Z,29.60
2019-02-16T17:58:11.328Z,32.33
2019-02-16T18:01:06.771Z,31.97
2019-02-16T18:04:00.494Z,27.67
2019-02-16T18:07:00.164Z,27.30
2019-02-16T18:09:48.902Z,25.53
2019-02-16T18:12:34.046Z,35.47
2019-02-16T18:15:18.372Z,36.30
2019-02-16T18:17:56.144Z,32.67
2019-02-16T18:20:53.495Z,31.33
2019-02-16T18:23:42.410Z,31.90
2019-02-16T18:26:44.653Z,29.10
2019-02-16T18:29:45.143Z,29.73
2019-02-16T18:32:33.951Z,29.20
2019-02-16T18:35:28.894Z,29.70
2019-02-16T18:38:08.483Z,25.07
2019-02-16T18:40:57.298Z,28.67
2019-02-16T18:43:51.097Z,29.17
2019-02-16T18:46:49.568Z,28.93
2019-02-16T18:49:47.265Z,29.83
2019-02-16T18:52:40.336Z,28.03
2019-02-16T18:55:32.585Z,27.70
2019-02-16T18:58:22.589Z,27.67
2019-02-16T19:01:22.949Z,27.70
2019-02-16T19:04:10.481Z,26.07
2019-02-16T19:06:51.734Z,27.00
2019-02-16T19:09:38.844Z,27.20
2019-02-16T19:12:21.753Z,27.07
2019-02-16T19:15:00.348Z,31.77
2019-02-16T19:17:51.392Z,34.10
2019-02-16T19:20:39.480Z,42.13
2019-02-16T19:23:23.396Z,36.20
2019-02-16T19:25:59.634Z,33.80
2019-02-16T19:28:46.530Z,28.73
2019-02-16T19:31:35.219Z,32.67
2019-02-16T19:34:31.620Z,27.30
2019-02-16T19:37:09.201Z,30.43
2019-02-16T19:39:56.746Z,49.40
2019-02-16T19:42:31.794Z,76.93
2019-02-16T19:45:27.642Z,84.20
2019-02-16T19:48:16.903Z,147.27
2019-02-16T19:50:58.062Z,74.53
2019-02-16T19:53:33.227Z,58.27
2019-02-16T19:56:12.473Z,72.60
2019-02-16T19:59:10.806Z,43.63
2019-02-16T20:02:05.071Z,46.63
2019-02-16T20:05:00.294Z,44.90
2019-02-16T20:07:41.041Z,100.17
2019-02-16T20:10:37.821Z,95.17
2019-02-16T20:13:35.158Z,68.20
2019-02-16T20:16:23.689Z,159.00
2019-02-16T20:19:16.516Z,171.83
2019-02-16T20:22:03.579Z,78.73
2019-02-16T20:24:53.969Z,48.00
2019-02-16T20:27:42.960Z,42.83
2019-02-16T20:30:30.084Z,35.53
2019-02-16T20:33:19.261Z,94.03
2019-02-16T20:36:15.763Z,94.87
2019-02-16T20:39:17.436Z,181.77
2019-02-16T20:42:04.379Z,91.60
2019-02-16T20:44:44.941Z,59.03
2019-02-16T20:47:43.442Z,34.13
2019-02-16T20:50:35.680Z,39.03
2019-02-16T20:53:34.961Z,33.37
2019-02-16T20:56:23.640Z,33.17
2019-02-16T20:59:10.877Z,32.57
2019-02-16T21:01:55.534Z,41.87
2019-02-16T21:05:04.375Z,38.73
2019-02-16T21:08:02.097Z,40.03
2019-02-16T21:10:48.018Z,35.90
2019-02-16T21:13:42.973Z,33.70
2019-02-16T21:16:23.959Z,34.17
2019-02-16T21:19:19.015Z,32.57
2019-02-16T21:22:08.214Z,32.60
2019-02-16T21:24:46.221Z,36.97
2019-02-16T21:27:29.698Z,34.17
2019-02-16T21:30:24.651Z,33.53
2019-02-16T21:33:17.527Z,39.67
2019-02-16T21:36:05.142Z,40.40
2019-02-16T21:39:02.905Z,43.73
2019-02-16T21:41:37.765Z,36.57
2019-02-16T21:44:34.008Z,33.90
2019-02-16T21:47:30.834Z,38.30
2019-02-16T21:50:12.441Z,45.47
2019-02-16T21:53:06.762Z,82.53
2019-02-16T21:55:54.423Z,79.27
2019-02-16T21:58:31.661Z,56.37
2019-02-16T22:01:17.110Z,44.80
2019-02-16T22:03:53.328Z,43.33
2019-02-16T22:06:40.254Z,39.40
2019-02-16T22:09:45.243Z,41.13
2019-02-16T22:12:37.041Z,40.03
2019-02-16T22:15:06.996Z,177.60
2019-02-16T22:17:39.180Z,160.67
2019-02-16T22:20:10.678Z,92.40
2019-02-16T22:22:41.765Z,60.67
2019-02-16T22:25:11.887Z,61.07
2019-02-16T22:27:42.756Z,38.33
2019-02-16T22:30:12.210Z,39.50
2019-02-16T22:32:41.726Z,44.30
2019-02-16T22:35:16.092Z,35.97
2019-02-16T22:37:45.867Z,36.80
2019-02-16T22:40:15.267Z,35.73
2019-02-16T22:42:45.374Z,31.57
2019-02-16T22:45:14.539Z,29.83
2019-02-16T22:47:44.334Z,29.00
2019-02-16T22:50:14.322Z,34.27
2019-02-16T22:52:44.577Z,31.73
2019-02-16T22:55:14.024Z,31.37
2019-02-16T22:57:43.432Z,51.87
2019-02-16T23:00:19.080Z,63.90
2019-02-16T23:02:51.520Z,79.07
2019-02-16T23:05:21.021Z,49.97
2019-02-16T23:07:50.290Z,41.03
2019-02-16T23:10:19.473Z,52.60
2019-02-16T23:12:48.801Z,50.50
2019-02-16T23:15:18.852Z,42.73
2019-02-16T23:17:49.858Z,39.63
2019-02-16T23:20:20.121Z,35.00
2019-02-16T23:22:50.829Z,33.43
2019-02-16T23:25:20.651Z,31.73
2019-02-16T23:27:49.961Z,30.73
2019-02-16T23:30:22.578Z,31.90
2019-02-16T23:32:51.778Z,33.03
2019-02-16T23:35:21.826Z,31.73
2019-02-16T23:37:54.198Z,31.53
2019-02-16T23:40:23.380Z,30.97
2019-02-16T23:42:56.930Z,27.77
2019-02-16T23:45:26.298Z,31.80
2019-02-16T23:47:57.913Z,29.87
2019-02-16T23:50:27.079Z,31.60
2019-02-16T23:53:00.290Z,33.10
2019-02-16T23:55:30.983Z,30.57
2019-02-16T23:58:02.261Z,31.70
